X  CloseMetar Aviation Weather Data     EGGD Bristol Airport

Temperature

17°C Temperature

-2°C Dewpoint

27% Humidity



Wind

21 KM/H

13 MPH

 6 M/S

11 KTS



110°
East South
East
Current Conditions

Clear Clear
Pressure 1024.92 (hPa) - 30.27 (in)
Visibility 6.2 (mi) - 10 (km)
Airport
Airport-code EGGD

Location Bristol Airport 9 (mi)

Metar:
EGGD 231550Z AUTO 11011KT 080V150 9999 NCD 17/M02 Q1025

Time: 2021-04-23 16:50